Details From EPGD - LECH WALESA
To EPLB - Lublin
Flight Number -
Tags generated
Created
Modified
Stats Distance 250 nm / 462 km
Max Altitude 27,500 ft / 8,382 m
Waypoints 5
Social Downloads 0
Likes 0
Share VATSIM

Download

Looking for another format? Having issues loading an existing format? Contact us
Advertisement - Login to hide

Notes

Basic altitude profile: - Ascent Rate: 2500ft/min - Ascent Speed: 250kts - Cruise Altitude: 35000ft - Cruise Speed: 420kts - Descent Rate: 1500ft/min - Descent Speed: 250kts Options: - Use NATs: yes - Use PACOTS: yes - Use low airways: yes - Use high airways: yes

Route

EPGD SOMOR N191 IDAKO UN191 LIN EPLB

ID Type Via Altitude Latitude Longitude Leg Dist Tot Dist Heading (true) Name
O EPGD APT - 0 ft / 0 m 54.37617˚ 18.47188˚ - 0 nm - LECH WALESA
SOMOR FIX - 27,000 ft / 8,230 m 53.22694˚ 19.35028˚ 75 nm 75 nm 155° / 156° -
IDAKO FIX N191 (AWY-LO) 27,100 ft / 8,260 m 52.70444˚ 20.32833˚ 47 nm 123 nm 131° / 132° -
LIN VOR UN191 (AWY-HI) 27,500 ft / 8,382 m 51.93289˚ 21.15853˚ 55 nm 178 nm 146° / 147° LININ VOR-DME
O EPLB APT - 0 ft / 0 m 51.23634˚ 22.70251˚ 71 nm 249 nm 125° / 127° Lublin

Altitude Profile

Advertisement - Login to hide

Weather


0- 5 10 15 20 25 30 35+ Temperature / ° C

Clouds and Precipitation
Forecast for 2017-12-17 06:00 UTC. Updated an hour ago

Ground ~20,000 ft ~40,000 ft Winds

EPGD

Details ICAO EPGD (GDN)
Name LECH WALESA
Region Poland
Timezone Europe/Warsaw (UTC+1.0)
Stats Elevation 489 ft / 149 m (AMSL)
Location 54.376167° 18.471884°
Runways 1
Magnetic Variation 5.451° E

METAR

EPGD 170600Z 27006KT 9999 SCT009 M02/M03 Q1011

Decode

TAF

TAF TAF EPGD 170530Z 1706/1806 26010KT 9999 SCT030 PROB40 TEMPO 1706/1714 3000 -SHSN BR BKN005 BKN010CB BECMG 1713/1716 VRB02KT 2000 BR PROB40 1715/1724 0300 FZFG OVC001

Decode

Departure Runways

ID Width Length Bearing (true) Bearing (mag) Surface Threshold Offset Overrun Length
11 148 ft / 45 m 9,158 ft / 2,791 m 112.96° 107.51° Asphalt 0 ft / 0 m 0 ft / 0 m
29 148 ft / 45 m 9,158 ft / 2,791 m 293.00° 287.55° Asphalt 0 ft / 0 m 0 ft / 0 m

EPLB

Details ICAO EPLB (LUZ)
Name Lublin
Region Poland
Timezone Europe/Warsaw (UTC+1.0)
Stats Elevation 633 ft / 193 m (AMSL)
Location 51.236345° 22.702508°
Runways 2
Magnetic Variation 6.073° E

METAR

EPLB 170600Z 24006KT 8000 NSC M01/M01 Q1014

Decode

TAF

Not found

Destination Runways

ID Width Length Bearing (true) Bearing (mag) Surface Threshold Offset Overrun Length
06 222 ft / 68 m 3,445 ft / 1,050 m 62.25° 56.18° Grass 0 ft / 0 m 0 ft / 0 m
07 148 ft / 45 m 8,277 ft / 2,523 m 77.06° 70.99° Asphalt 72 ft / 22 m 0 ft / 0 m
24 222 ft / 68 m 3,445 ft / 1,050 m 242.26° 236.19° Grass 0 ft / 0 m 0 ft / 0 m
25 148 ft / 45 m 8,277 ft / 2,523 m 257.09° 251.02° Asphalt 66 ft / 20 m 0 ft / 0 m

Popular Alternatives